sensor_id;sensor_type;location;lat;lon;timestamp;P1;durP1;ratioP1;P2;durP2;ratioP2
79023;SDS011;70306;44.764;37.688;2024-02-23T00:00:39;37.75;;;20.35;;
79023;SDS011;70306;44.764;37.688;2024-02-23T00:01:41;37.88;;;19.75;;
79023;SDS011;70306;44.764;37.688;2024-02-23T00:02:43;38.55;;;19.40;;
79023;SDS011;70306;44.764;37.688;2024-02-23T00:03:45;35.55;;;19.15;;
79023;SDS011;70306;44.764;37.688;2024-02-23T00:04:47;39.35;;;20.50;;
79023;SDS011;70306;44.764;37.688;2024-02-23T00:05:49;35.70;;;19.30;;
79023;SDS011;70306;44.764;37.688;2024-02-23T00:06:51;35.83;;;18.70;;
79023;SDS011;70306;44.764;37.688;2024-02-23T00:07:53;36.70;;;20.70;;
79023;SDS011;70306;44.764;37.688;2024-02-23T00:08:55;37.03;;;19.58;;
79023;SDS011;70306;44.764;37.688;2024-02-23T00:09:57;34.40;;;19.13;;
79023;SDS011;70306;44.764;37.688;2024-02-23T00:10:59;35.42;;;21.52;;
79023;SDS011;70306;44.764;37.688;2024-02-23T00:12:01;35.33;;;18.63;;
79023;SDS011;70306;44.764;37.688;2024-02-23T00:13:03;41.08;;;19.80;;
79023;SDS011;70306;44.764;37.688;2024-02-23T00:14:05;34.55;;;18.92;;
79023;SDS011;70306;44.764;37.688;2024-02-23T00:15:07;36.05;;;19.67;;
79023;SDS011;70306;44.764;37.688;2024-02-23T00:16:10;34.55;;;18.75;;
79023;SDS011;70306;44.764;37.688;2024-02-23T00:17:12;43.95;;;19.23;;
79023;SDS011;70306;44.764;37.688;2024-02-23T00:18:14;40.25;;;19.77;;
79023;SDS011;70306;44.764;37.688;2024-02-23T00:19:18;39.65;;;20.15;;
79023;SDS011;70306;44.764;37.688;2024-02-23T00:20:21;43.15;;;20.85;;
79023;SDS011;70306;44.764;37.688;2024-02-23T00:21:23;44.42;;;20.75;;
79023;SDS011;70306;44.764;37.688;2024-02-23T00:22:25;45.83;;;21.90;;
79023;SDS011;70306;44.764;37.688;2024-02-23T00:23:27;51.08;;;19.17;;
79023;SDS011;70306;44.764;37.688;2024-02-23T00:24:30;34.95;;;15.82;;
79023;SDS011;70306;44.764;37.688;2024-02-23T00:25:32;39.10;;;17.05;;
79023;SDS011;70306;44.764;37.688;2024-02-23T00:26:34;43.38;;;18.90;;
79023;SDS011;70306;44.764;37.688;2024-02-23T00:27:36;44.90;;;19.73;;
79023;SDS011;70306;44.764;37.688;2024-02-23T00:28:38;38.55;;;19.00;;
79023;SDS011;70306;44.764;37.688;2024-02-23T00:29:40;41.33;;;20.05;;
79023;SDS011;70306;44.764;37.688;2024-02-23T00:30:42;40.38;;;18.98;;
79023;SDS011;70306;44.764;37.688;2024-02-23T00:31:44;34.25;;;18.25;;
79023;SDS011;70306;44.764;37.688;2024-02-23T00:32:46;40.20;;;20.77;;
79023;SDS011;70306;44.764;37.688;2024-02-23T00:33:48;36.83;;;19.50;;
79023;SDS011;70306;44.764;37.688;2024-02-23T00:34:51;35.92;;;19.52;;
79023;SDS011;70306;44.764;37.688;2024-02-23T00:35:52;36.60;;;20.70;;
79023;SDS011;70306;44.764;37.688;2024-02-23T00:36:54;36.47;;;19.73;;
79023;SDS011;70306;44.764;37.688;2024-02-23T00:37:57;36.00;;;17.35;;
79023;SDS011;70306;44.764;37.688;2024-02-23T00:38:59;44.05;;;18.50;;
79023;SDS011;70306;44.764;37.688;2024-02-23T00:40:04;38.05;;;19.70;;
79023;SDS011;70306;44.764;37.688;2024-02-23T00:41:06;39.00;;;17.75;;
79023;SDS011;70306;44.764;37.688;2024-02-23T00:42:08;31.77;;;16.90;;
79023;SDS011;70306;44.764;37.688;2024-02-23T00:43:10;32.88;;;17.48;;
79023;SDS011;70306;44.764;37.688;2024-02-23T00:44:12;33.63;;;16.50;;
79023;SDS011;70306;44.764;37.688;2024-02-23T00:45:14;34.95;;;16.55;;
79023;SDS011;70306;44.764;37.688;2024-02-23T00:46:17;36.55;;;17.40;;
79023;SDS011;70306;44.764;37.688;2024-02-23T00:47:19;32.60;;;16.58;;
79023;SDS011;70306;44.764;37.688;2024-02-23T00:48:21;31.90;;;15.88;;
79023;SDS011;70306;44.764;37.688;2024-02-23T00:49:23;29.23;;;15.02;;
79023;SDS011;70306;44.764;37.688;2024-02-23T00:50:25;27.52;;;15.10;;
79023;SDS011;70306;44.764;37.688;2024-02-23T00:51:28;30.30;;;14.50;;
79023;SDS011;70306;44.764;37.688;2024-02-23T00:52:30;29.98;;;15.50;;
79023;SDS011;70306;44.764;37.688;2024-02-23T00:53:32;30.92;;;13.38;;
79023;SDS011;70306;44.764;37.688;2024-02-23T00:54:34;30.75;;;14.23;;
79023;SDS011;70306;44.764;37.688;2024-02-23T00:55:36;30.52;;;14.23;;
79023;SDS011;70306;44.764;37.688;2024-02-23T00:56:38;28.85;;;15.00;;
79023;SDS011;70306;44.764;37.688;2024-02-23T00:57:40;27.55;;;13.95;;
79023;SDS011;70306;44.764;37.688;2024-02-23T00:58:42;35.80;;;15.52;;
79023;SDS011;70306;44.764;37.688;2024-02-23T00:59:44;42.50;;;14.43;;
79023;SDS011;70306;44.764;37.688;2024-02-23T01:00:46;33.45;;;15.30;;
79023;SDS011;70306;44.764;37.688;2024-02-23T01:01:48;31.98;;;13.88;;
79023;SDS011;70306;44.764;37.688;2024-02-23T01:02:50;28.98;;;13.52;;
79023;SDS011;70306;44.764;37.688;2024-02-23T01:03:52;36.85;;;13.63;;
79023;SDS011;70306;44.764;37.688;2024-02-23T01:04:54;30.83;;;13.20;;
79023;SDS011;70306;44.764;37.688;2024-02-23T01:05:58;29.20;;;13.65;;
79023;SDS011;70306;44.764;37.688;2024-02-23T01:07:00;30.52;;;14.45;;
79023;SDS011;70306;44.764;37.688;2024-02-23T01:08:02;31.05;;;14.57;;
79023;SDS011;70306;44.764;37.688;2024-02-23T01:09:04;30.27;;;14.00;;
79023;SDS011;70306;44.764;37.688;2024-02-23T01:10:06;22.00;;;12.63;;
79023;SDS011;70306;44.764;37.688;2024-02-23T01:11:09;25.83;;;14.73;;
79023;SDS011;70306;44.764;37.688;2024-02-23T01:12:11;33.08;;;14.75;;
79023;SDS011;70306;44.764;37.688;2024-02-23T01:13:13;36.05;;;15.05;;
79023;SDS011;70306;44.764;37.688;2024-02-23T01:14:15;29.05;;;14.18;;
79023;SDS011;70306;44.764;37.688;2024-02-23T01:15:17;26.15;;;14.30;;
79023;SDS011;70306;44.764;37.688;2024-02-23T01:16:19;29.83;;;14.20;;
79023;SDS011;70306;44.764;37.688;2024-02-23T01:17:21;28.65;;;13.73;;
79023;SDS011;70306;44.764;37.688;2024-02-23T01:18:23;30.55;;;14.10;;
79023;SDS011;70306;44.764;37.688;2024-02-23T01:19:25;28.83;;;14.52;;
79023;SDS011;70306;44.764;37.688;2024-02-23T01:20:27;30.15;;;14.82;;
79023;SDS011;70306;44.764;37.688;2024-02-23T01:21:29;25.58;;;13.43;;
79023;SDS011;70306;44.764;37.688;2024-02-23T01:22:31;29.98;;;14.50;;
79023;SDS011;70306;44.764;37.688;2024-02-23T01:23:33;26.55;;;13.43;;
79023;SDS011;70306;44.764;37.688;2024-02-23T01:24:35;26.70;;;14.10;;
79023;SDS011;70306;44.764;37.688;2024-02-23T01:25:38;28.48;;;14.13;;
79023;SDS011;70306;44.764;37.688;2024-02-23T01:26:40;25.85;;;14.85;;
79023;SDS011;70306;44.764;37.688;2024-02-23T01:27:42;25.88;;;13.25;;
79023;SDS011;70306;44.764;37.688;2024-02-23T01:28:47;51.70;;;15.30;;
79023;SDS011;70306;44.764;37.688;2024-02-23T01:29:49;38.63;;;15.25;;
79023;SDS011;70306;44.764;37.688;2024-02-23T01:30:51;32.40;;;14.90;;
79023;SDS011;70306;44.764;37.688;2024-02-23T01:31:53;22.70;;;14.23;;
79023;SDS011;70306;44.764;37.688;2024-02-23T01:32:55;27.38;;;15.48;;
79023;SDS011;70306;44.764;37.688;2024-02-23T01:33:58;22.25;;;13.40;;
79023;SDS011;70306;44.764;37.688;2024-02-23T01:35:00;27.15;;;14.35;;
79023;SDS011;70306;44.764;37.688;2024-02-23T01:36:02;21.02;;;13.52;;
79023;SDS011;70306;44.764;37.688;2024-02-23T01:37:04;25.20;;;14.80;;
79023;SDS011;70306;44.764;37.688;2024-02-23T01:38:06;28.58;;;14.52;;
79023;SDS011;70306;44.764;37.688;2024-02-23T01:39:08;25.50;;;15.05;;
79023;SDS011;70306;44.764;37.688;2024-02-23T01:40:11;30.50;;;14.65;;
79023;SDS011;70306;44.764;37.688;2024-02-23T01:41:13;22.27;;;13.57;;
79023;SDS011;70306;44.764;37.688;2024-02-23T01:42:15;27.00;;;15.75;;
79023;SDS011;70306;44.764;37.688;2024-02-23T01:43:18;26.33;;;16.08;;
79023;SDS011;70306;44.764;37.688;2024-02-23T01:44:21;26.15;;;15.23;;
79023;SDS011;70306;44.764;37.688;2024-02-23T01:45:23;29.73;;;15.63;;
79023;SDS011;70306;44.764;37.688;2024-02-23T01:46:24;26.25;;;15.70;;
79023;SDS011;70306;44.764;37.688;2024-02-23T01:47:27;23.83;;;15.27;;
79023;SDS011;70306;44.764;37.688;2024-02-23T01:48:31;29.42;;;15.10;;
79023;SDS011;70306;44.764;37.688;2024-02-23T01:49:34;26.15;;;15.80;;
79023;SDS011;70306;44.764;37.688;2024-02-23T01:50:37;45.60;;;17.67;;
79023;SDS011;70306;44.764;37.688;2024-02-23T01:51:39;26.65;;;16.23;;
79023;SDS011;70306;44.764;37.688;2024-02-23T01:52:42;29.02;;;15.93;;
79023;SDS011;70306;44.764;37.688;2024-02-23T01:53:44;30.45;;;17.65;;
79023;SDS011;70306;44.764;37.688;2024-02-23T01:54:46;34.13;;;14.73;;
79023;SDS011;70306;44.764;37.688;2024-02-23T01:55:48;31.58;;;15.88;;
79023;SDS011;70306;44.764;37.688;2024-02-23T01:56:51;30.80;;;14.45;;
79023;SDS011;70306;44.764;37.688;2024-02-23T01:57:53;29.73;;;15.18;;
79023;SDS011;70306;44.764;37.688;2024-02-23T01:58:56;40.10;;;17.70;;
79023;SDS011;70306;44.764;37.688;2024-02-23T01:59:58;37.42;;;15.57;;
79023;SDS011;70306;44.764;37.688;2024-02-23T02:02:04;29.00;;;14.35;;
79023;SDS011;70306;44.764;37.688;2024-02-23T02:03:07;31.55;;;14.98;;
79023;SDS011;70306;44.764;37.688;2024-02-23T02:04:09;21.33;;;13.55;;
79023;SDS011;70306;44.764;37.688;2024-02-23T02:05:11;26.27;;;14.00;;
79023;SDS011;70306;44.764;37.688;2024-02-23T02:06:13;27.45;;;14.40;;
79023;SDS011;70306;44.764;37.688;2024-02-23T02:07:16;28.00;;;13.95;;
79023;SDS011;70306;44.764;37.688;2024-02-23T02:08:19;24.08;;;13.50;;
79023;SDS011;70306;44.764;37.688;2024-02-23T02:09:21;20.60;;;12.50;;
79023;SDS011;70306;44.764;37.688;2024-02-23T02:10:24;24.08;;;12.20;;
79023;SDS011;70306;44.764;37.688;2024-02-23T02:11:28;24.67;;;12.73;;
79023;SDS011;70306;44.764;37.688;2024-02-23T02:12:30;25.02;;;12.52;;
79023;SDS011;70306;44.764;37.688;2024-02-23T02:13:32;26.75;;;13.00;;
79023;SDS011;70306;44.764;37.688;2024-02-23T02:14:34;26.60;;;12.45;;
79023;SDS011;70306;44.764;37.688;2024-02-23T02:15:36;19.38;;;12.15;;
79023;SDS011;70306;44.764;37.688;2024-02-23T02:16:38;22.00;;;13.20;;
79023;SDS011;70306;44.764;37.688;2024-02-23T02:17:41;18.58;;;11.77;;
79023;SDS011;70306;44.764;37.688;2024-02-23T02:18:43;22.83;;;11.23;;
79023;SDS011;70306;44.764;37.688;2024-02-23T02:19:47;22.73;;;11.75;;
79023;SDS011;70306;44.764;37.688;2024-02-23T02:20:59;46.40;;;13.45;;
79023;SDS011;70306;44.764;37.688;2024-02-23T02:22:01;22.58;;;12.90;;
79023;SDS011;70306;44.764;37.688;2024-02-23T02:23:03;20.52;;;11.38;;
79023;SDS011;70306;44.764;37.688;2024-02-23T02:24:06;19.27;;;12.48;;
79023;SDS011;70306;44.764;37.688;2024-02-23T02:25:08;19.23;;;11.30;;
79023;SDS011;70306;44.764;37.688;2024-02-23T02:26:10;17.45;;;11.80;;
79023;SDS011;70306;44.764;37.688;2024-02-23T02:27:12;20.73;;;11.00;;
79023;SDS011;70306;44.764;37.688;2024-02-23T02:28:14;17.88;;;11.82;;
79023;SDS011;70306;44.764;37.688;2024-02-23T02:29:16;18.88;;;11.02;;
79023;SDS011;70306;44.764;37.688;2024-02-23T02:30:18;17.52;;;11.18;;
79023;SDS011;70306;44.764;37.688;2024-02-23T02:31:21;21.30;;;11.93;;
79023;SDS011;70306;44.764;37.688;2024-02-23T02:32:23;21.48;;;13.20;;
79023;SDS011;70306;44.764;37.688;2024-02-23T02:33:25;19.75;;;12.85;;
79023;SDS011;70306;44.764;37.688;2024-02-23T02:34:27;20.55;;;12.18;;
79023;SDS011;70306;44.764;37.688;2024-02-23T02:35:30;18.45;;;10.80;;
79023;SDS011;70306;44.764;37.688;2024-02-23T02:36:32;19.23;;;11.90;;
79023;SDS011;70306;44.764;37.688;2024-02-23T02:37:34;19.65;;;10.70;;
79023;SDS011;70306;44.764;37.688;2024-02-23T02:38:36;21.95;;;11.90;;
79023;SDS011;70306;44.764;37.688;2024-02-23T02:39:38;19.17;;;11.35;;
79023;SDS011;70306;44.764;37.688;2024-02-23T02:40:40;18.23;;;10.90;;
79023;SDS011;70306;44.764;37.688;2024-02-23T02:41:42;18.38;;;11.13;;
79023;SDS011;70306;44.764;37.688;2024-02-23T02:42:46;19.27;;;10.93;;
79023;SDS011;70306;44.764;37.688;2024-02-23T02:43:48;21.45;;;10.48;;
79023;SDS011;70306;44.764;37.688;2024-02-23T02:44:50;17.98;;;10.77;;
79023;SDS011;70306;44.764;37.688;2024-02-23T02:45:52;19.67;;;11.00;;
79023;SDS011;70306;44.764;37.688;2024-02-23T02:46:54;18.25;;;10.85;;
79023;SDS011;70306;44.764;37.688;2024-02-23T02:47:56;17.17;;;11.15;;
79023;SDS011;70306;44.764;37.688;2024-02-23T02:48:58;18.90;;;11.25;;
79023;SDS011;70306;44.764;37.688;2024-02-23T02:50:00;21.10;;;12.20;;
79023;SDS011;70306;44.764;37.688;2024-02-23T02:51:02;29.98;;;11.30;;
79023;SDS011;70306;44.764;37.688;2024-02-23T02:52:04;31.45;;;12.57;;
79023;SDS011;70306;44.764;37.688;2024-02-23T02:53:06;23.65;;;11.82;;
79023;SDS011;70306;44.764;37.688;2024-02-23T02:54:08;20.80;;;10.88;;
79023;SDS011;70306;44.764;37.688;2024-02-23T02:55:10;18.23;;;10.70;;
79023;SDS011;70306;44.764;37.688;2024-02-23T02:56:12;17.58;;;10.50;;
79023;SDS011;70306;44.764;37.688;2024-02-23T02:57:14;20.75;;;11.52;;
79023;SDS011;70306;44.764;37.688;2024-02-23T02:58:16;18.85;;;11.23;;
79023;SDS011;70306;44.764;37.688;2024-02-23T02:59:18;23.45;;;11.30;;
79023;SDS011;70306;44.764;37.688;2024-02-23T03:00:20;23.25;;;11.55;;
79023;SDS011;70306;44.764;37.688;2024-02-23T03:01:22;20.52;;;11.15;;
79023;SDS011;70306;44.764;37.688;2024-02-23T03:02:25;21.23;;;12.38;;
79023;SDS011;70306;44.764;37.688;2024-02-23T03:03:27;22.45;;;12.30;;
79023;SDS011;70306;44.764;37.688;2024-02-23T03:04:29;21.95;;;12.63;;
79023;SDS011;70306;44.764;37.688;2024-02-23T03:05:31;18.67;;;10.85;;
79023;SDS011;70306;44.764;37.688;2024-02-23T03:06:33;18.60;;;12.43;;
79023;SDS011;70306;44.764;37.688;2024-02-23T03:07:35;19.08;;;11.65;;
79023;SDS011;70306;44.764;37.688;2024-02-23T03:08:37;20.05;;;11.48;;
79023;SDS011;70306;44.764;37.688;2024-02-23T03:09:39;18.23;;;10.52;;
79023;SDS011;70306;44.764;37.688;2024-02-23T03:10:41;19.40;;;11.38;;
79023;SDS011;70306;44.764;37.688;2024-02-23T03:11:43;22.95;;;11.45;;
79023;SDS011;70306;44.764;37.688;2024-02-23T03:12:45;17.50;;;11.18;;
79023;SDS011;70306;44.764;37.688;2024-02-23T03:13:48;29.42;;;12.75;;
79023;SDS011;70306;44.764;37.688;2024-02-23T03:14:50;33.13;;;13.93;;
79023;SDS011;70306;44.764;37.688;2024-02-23T03:15:52;31.33;;;13.73;;
79023;SDS011;70306;44.764;37.688;2024-02-23T03:16:54;22.15;;;11.55;;
79023;SDS011;70306;44.764;37.688;2024-02-23T03:17:56;24.75;;;12.43;;
79023;SDS011;70306;44.764;37.688;2024-02-23T03:18:59;24.33;;;12.02;;
79023;SDS011;70306;44.764;37.688;2024-02-23T03:20:01;21.52;;;11.77;;
79023;SDS011;70306;44.764;37.688;2024-02-23T03:21:06;22.70;;;12.02;;
79023;SDS011;70306;44.764;37.688;2024-02-23T03:22:10;18.92;;;11.45;;
79023;SDS011;70306;44.764;37.688;2024-02-23T03:23:12;23.42;;;12.70;;
79023;SDS011;70306;44.764;37.688;2024-02-23T03:24:15;24.67;;;13.15;;
79023;SDS011;70306;44.764;37.688;2024-02-23T03:25:17;27.63;;;13.10;;
79023;SDS011;70306;44.764;37.688;2024-02-23T03:26:19;21.80;;;12.10;;
79023;SDS011;70306;44.764;37.688;2024-02-23T03:27:21;23.95;;;12.57;;
79023;SDS011;70306;44.764;37.688;2024-02-23T03:28:29;23.60;;;12.93;;
79023;SDS011;70306;44.764;37.688;2024-02-23T03:29:31;24.33;;;12.80;;
79023;SDS011;70306;44.764;37.688;2024-02-23T03:30:33;22.63;;;13.85;;
79023;SDS011;70306;44.764;37.688;2024-02-23T03:31:37;23.08;;;12.93;;
79023;SDS011;70306;44.764;37.688;2024-02-23T03:32:39;23.92;;;13.40;;
79023;SDS011;70306;44.764;37.688;2024-02-23T03:33:41;24.23;;;13.10;;
79023;SDS011;70306;44.764;37.688;2024-02-23T03:34:43;24.75;;;13.30;;
79023;SDS011;70306;44.764;37.688;2024-02-23T03:35:45;24.00;;;12.90;;
79023;SDS011;70306;44.764;37.688;2024-02-23T03:36:47;22.60;;;12.35;;
79023;SDS011;70306;44.764;37.688;2024-02-23T03:37:49;21.63;;;12.57;;
79023;SDS011;70306;44.764;37.688;2024-02-23T03:38:51;19.77;;;11.32;;
79023;SDS011;70306;44.764;37.688;2024-02-23T03:39:53;22.08;;;12.63;;
79023;SDS011;70306;44.764;37.688;2024-02-23T03:40:55;21.77;;;12.23;;
79023;SDS011;70306;44.764;37.688;2024-02-23T03:41:58;23.48;;;11.50;;
79023;SDS011;70306;44.764;37.688;2024-02-23T03:43:00;20.63;;;12.93;;
79023;SDS011;70306;44.764;37.688;2024-02-23T03:44:02;23.25;;;11.73;;
79023;SDS011;70306;44.764;37.688;2024-02-23T03:45:04;22.02;;;12.02;;
79023;SDS011;70306;44.764;37.688;2024-02-23T03:46:07;24.67;;;11.13;;
79023;SDS011;70306;44.764;37.688;2024-02-23T03:47:09;30.27;;;12.93;;
79023;SDS011;70306;44.764;37.688;2024-02-23T03:48:11;23.13;;;10.65;;
79023;SDS011;70306;44.764;37.688;2024-02-23T03:49:13;24.52;;;11.32;;
79023;SDS011;70306;44.764;37.688;2024-02-23T03:50:15;22.10;;;12.05;;
79023;SDS011;70306;44.764;37.688;2024-02-23T03:51:17;21.92;;;12.77;;
79023;SDS011;70306;44.764;37.688;2024-02-23T03:52:19;24.67;;;11.23;;
79023;SDS011;70306;44.764;37.688;2024-02-23T03:53:21;22.88;;;12.27;;
79023;SDS011;70306;44.764;37.688;2024-02-23T03:54:23;25.70;;;11.32;;
79023;SDS011;70306;44.764;37.688;2024-02-23T03:55:25;19.98;;;11.52;;
79023;SDS011;70306;44.764;37.688;2024-02-23T03:56:27;39.53;;;13.10;;
79023;SDS011;70306;44.764;37.688;2024-02-23T03:57:29;27.35;;;11.23;;
79023;SDS011;70306;44.764;37.688;2024-02-23T03:58:31;27.13;;;11.90;;
79023;SDS011;70306;44.764;37.688;2024-02-23T03:59:35;22.73;;;11.30;;
79023;SDS011;70306;44.764;37.688;2024-02-23T04:00:38;21.10;;;11.23;;
79023;SDS011;70306;44.764;37.688;2024-02-23T04:01:40;26.77;;;12.25;;
79023;SDS011;70306;44.764;37.688;2024-02-23T04:02:43;33.08;;;12.77;;
79023;SDS011;70306;44.764;37.688;2024-02-23T04:03:45;25.80;;;10.95;;
79023;SDS011;70306;44.764;37.688;2024-02-23T04:04:47;23.48;;;12.10;;
79023;SDS011;70306;44.764;37.688;2024-02-23T04:05:50;27.80;;;12.13;;
79023;SDS011;70306;44.764;37.688;2024-02-23T04:06:52;30.13;;;15.50;;
79023;SDS011;70306;44.764;37.688;2024-02-23T04:07:54;34.55;;;17.02;;
79023;SDS011;70306;44.764;37.688;2024-02-23T04:08:56;42.33;;;15.40;;
79023;SDS011;70306;44.764;37.688;2024-02-23T04:09:59;29.50;;;14.82;;
79023;SDS011;70306;44.764;37.688;2024-02-23T04:11:01;84.38;;;19.20;;
79023;SDS011;70306;44.764;37.688;2024-02-23T04:12:03;64.40;;;18.95;;
79023;SDS011;70306;44.764;37.688;2024-02-23T04:13:05;43.40;;;16.17;;
79023;SDS011;70306;44.764;37.688;2024-02-23T04:14:07;59.58;;;17.80;;
79023;SDS011;70306;44.764;37.688;2024-02-23T04:15:09;36.22;;;15.13;;
79023;SDS011;70306;44.764;37.688;2024-02-23T04:16:11;58.35;;;15.77;;
79023;SDS011;70306;44.764;37.688;2024-02-23T04:17:14;42.05;;;13.23;;
79023;SDS011;70306;44.764;37.688;2024-02-23T04:18:16;35.00;;;13.63;;
79023;SDS011;70306;44.764;37.688;2024-02-23T04:19:18;26.42;;;12.60;;
79023;SDS011;70306;44.764;37.688;2024-02-23T04:20:20;28.48;;;11.73;;
79023;SDS011;70306;44.764;37.688;2024-02-23T04:21:22;23.02;;;11.20;;
79023;SDS011;70306;44.764;37.688;2024-02-23T04:22:25;20.85;;;10.35;;
79023;SDS011;70306;44.764;37.688;2024-02-23T04:23:27;21.80;;;12.02;;
79023;SDS011;70306;44.764;37.688;2024-02-23T04:24:29;23.98;;;11.55;;
79023;SDS011;70306;44.764;37.688;2024-02-23T04:25:31;22.23;;;10.80;;
79023;SDS011;70306;44.764;37.688;2024-02-23T04:26:33;29.30;;;12.15;;
79023;SDS011;70306;44.764;37.688;2024-02-23T04:27:35;25.88;;;11.68;;
79023;SDS011;70306;44.764;37.688;2024-02-23T04:28:38;39.90;;;11.95;;
79023;SDS011;70306;44.764;37.688;2024-02-23T04:29:41;28.30;;;12.15;;
79023;SDS011;70306;44.764;37.688;2024-02-23T04:30:43;42.42;;;12.50;;
79023;SDS011;70306;44.764;37.688;2024-02-23T04:31:45;26.55;;;12.13;;
79023;SDS011;70306;44.764;37.688;2024-02-23T04:32:47;28.27;;;12.02;;
79023;SDS011;70306;44.764;37.688;2024-02-23T04:33:49;28.77;;;12.15;;
79023;SDS011;70306;44.764;37.688;2024-02-23T04:34:51;37.58;;;12.38;;
79023;SDS011;70306;44.764;37.688;2024-02-23T04:35:53;30.70;;;11.20;;
79023;SDS011;70306;44.764;37.688;2024-02-23T04:36:55;21.63;;;10.50;;
79023;SDS011;70306;44.764;37.688;2024-02-23T04:37:57;21.95;;;10.80;;
79023;SDS011;70306;44.764;37.688;2024-02-23T04:38:59;20.13;;;10.52;;
79023;SDS011;70306;44.764;37.688;2024-02-23T04:40:01;39.38;;;12.27;;
79023;SDS011;70306;44.764;37.688;2024-02-23T04:41:03;27.20;;;12.27;;
79023;SDS011;70306;44.764;37.688;2024-02-23T04:42:06;41.50;;;11.88;;
79023;SDS011;70306;44.764;37.688;2024-02-23T04:43:10;39.85;;;12.18;;
79023;SDS011;70306;44.764;37.688;2024-02-23T04:44:11;30.10;;;11.13;;
79023;SDS011;70306;44.764;37.688;2024-02-23T04:45:13;27.15;;;11.73;;
79023;SDS011;70306;44.764;37.688;2024-02-23T04:46:16;24.90;;;10.77;;
79023;SDS011;70306;44.764;37.688;2024-02-23T04:47:18;24.92;;;11.07;;
79023;SDS011;70306;44.764;37.688;2024-02-23T04:48:20;38.20;;;12.48;;
79023;SDS011;70306;44.764;37.688;2024-02-23T04:49:22;28.55;;;12.65;;
79023;SDS011;70306;44.764;37.688;2024-02-23T04:50:24;27.52;;;12.00;;
79023;SDS011;70306;44.764;37.688;2024-02-23T04:51:26;22.50;;;11.23;;
79023;SDS011;70306;44.764;37.688;2024-02-23T04:52:28;36.80;;;12.65;;
79023;SDS011;70306;44.764;37.688;2024-02-23T04:53:30;33.13;;;12.48;;
79023;SDS011;70306;44.764;37.688;2024-02-23T04:54:32;27.48;;;12.50;;
79023;SDS011;70306;44.764;37.688;2024-02-23T04:55:34;27.60;;;12.20;;
79023;SDS011;70306;44.764;37.688;2024-02-23T04:56:36;25.70;;;12.32;;
79023;SDS011;70306;44.764;37.688;2024-02-23T04:57:38;34.55;;;13.00;;
79023;SDS011;70306;44.764;37.688;2024-02-23T04:58:41;28.90;;;14.48;;
79023;SDS011;70306;44.764;37.688;2024-02-23T04:59:44;28.00;;;14.45;;
79023;SDS011;70306;44.764;37.688;2024-02-23T05:00:46;33.25;;;15.45;;
79023;SDS011;70306;44.764;37.688;2024-02-23T05:01:48;39.55;;;15.00;;
79023;SDS011;70306;44.764;37.688;2024-02-23T05:02:50;38.00;;;14.80;;
79023;SDS011;70306;44.764;37.688;2024-02-23T05:03:52;47.55;;;16.08;;
79023;SDS011;70306;44.764;37.688;2024-02-23T05:04:54;37.00;;;15.85;;
79023;SDS011;70306;44.764;37.688;2024-02-23T05:05:56;50.53;;;14.57;;
79023;SDS011;70306;44.764;37.688;2024-02-23T05:06:58;35.53;;;16.65;;
79023;SDS011;70306;44.764;37.688;2024-02-23T05:08:00;31.90;;;15.93;;
79023;SDS011;70306;44.764;37.688;2024-02-23T05:09:02;44.50;;;15.65;;
79023;SDS011;70306;44.764;37.688;2024-02-23T05:10:04;29.90;;;14.93;;
79023;SDS011;70306;44.764;37.688;2024-02-23T05:11:07;56.95;;;15.02;;
79023;SDS011;70306;44.764;37.688;2024-02-23T05:12:11;27.58;;;15.20;;
79023;SDS011;70306;44.764;37.688;2024-02-23T05:13:13;38.22;;;14.00;;
79023;SDS011;70306;44.764;37.688;2024-02-23T05:14:16;23.50;;;12.90;;
79023;SDS011;70306;44.764;37.688;2024-02-23T05:15:18;24.42;;;12.82;;
79023;SDS011;70306;44.764;37.688;2024-02-23T05:16:20;26.20;;;12.38;;
79023;SDS011;70306;44.764;37.688;2024-02-23T05:17:22;30.15;;;13.55;;
79023;SDS011;70306;44.764;37.688;2024-02-23T05:18:24;30.80;;;13.10;;
79023;SDS011;70306;44.764;37.688;2024-02-23T05:19:26;41.47;;;14.48;;
79023;SDS011;70306;44.764;37.688;2024-02-23T05:20:28;32.90;;;13.40;;
79023;SDS011;70306;44.764;37.688;2024-02-23T05:21:30;43.90;;;15.60;;
79023;SDS011;70306;44.764;37.688;2024-02-23T05:22:32;33.60;;;14.07;;
79023;SDS011;70306;44.764;37.688;2024-02-23T05:23:35;38.45;;;15.40;;
79023;SDS011;70306;44.764;37.688;2024-02-23T05:24:37;30.35;;;13.82;;
79023;SDS011;70306;44.764;37.688;2024-02-23T05:25:39;40.33;;;15.20;;
79023;SDS011;70306;44.764;37.688;2024-02-23T05:26:42;37.33;;;14.48;;
79023;SDS011;70306;44.764;37.688;2024-02-23T05:27:45;54.78;;;15.60;;
79023;SDS011;70306;44.764;37.688;2024-02-23T05:28:47;47.55;;;14.07;;
79023;SDS011;70306;44.764;37.688;2024-02-23T05:29:50;31.63;;;14.02;;
79023;SDS011;70306;44.764;37.688;2024-02-23T05:30:52;28.85;;;13.35;;
79023;SDS011;70306;44.764;37.688;2024-02-23T05:31:54;46.00;;;19.90;;
79023;SDS011;70306;44.764;37.688;2024-02-23T05:32:56;35.42;;;16.90;;
79023;SDS011;70306;44.764;37.688;2024-02-23T05:34:00;41.08;;;15.93;;
79023;SDS011;70306;44.764;37.688;2024-02-23T05:35:02;44.60;;;16.08;;
79023;SDS011;70306;44.764;37.688;2024-02-23T05:36:05;34.80;;;13.10;;
79023;SDS011;70306;44.764;37.688;2024-02-23T05:37:07;43.35;;;15.32;;
79023;SDS011;70306;44.764;37.688;2024-02-23T05:38:10;38.60;;;15.07;;
79023;SDS011;70306;44.764;37.688;2024-02-23T05:39:12;82.68;;;18.13;;
79023;SDS011;70306;44.764;37.688;2024-02-23T05:40:16;53.05;;;15.02;;
79023;SDS011;70306;44.764;37.688;2024-02-23T05:41:18;62.50;;;16.00;;
79023;SDS011;70306;44.764;37.688;2024-02-23T05:42:20;99.10;;;19.55;;
79023;SDS011;70306;44.764;37.688;2024-02-23T05:43:22;59.45;;;15.73;;
79023;SDS011;70306;44.764;37.688;2024-02-23T05:44:24;44.63;;;15.68;;
79023;SDS011;70306;44.764;37.688;2024-02-23T05:45:27;109.80;;;18.02;;
79023;SDS011;70306;44.764;37.688;2024-02-23T05:46:29;56.22;;;16.27;;
79023;SDS011;70306;44.764;37.688;2024-02-23T05:47:31;126.40;;;20.17;;
79023;SDS011;70306;44.764;37.688;2024-02-23T05:48:33;195.15;;;26.15;;
79023;SDS011;70306;44.764;37.688;2024-02-23T05:49:35;113.82;;;19.77;;
79023;SDS011;70306;44.764;37.688;2024-02-23T05:50:37;128.27;;;36.80;;
79023;SDS011;70306;44.764;37.688;2024-02-23T05:51:39;105.45;;;24.88;;
79023;SDS011;70306;44.764;37.688;2024-02-23T05:52:41;98.45;;;22.45;;
79023;SDS011;70306;44.764;37.688;2024-02-23T05:53:43;55.30;;;19.55;;
79023;SDS011;70306;44.764;37.688;2024-02-23T05:54:45;47.35;;;16.42;;
79023;SDS011;70306;44.764;37.688;2024-02-23T05:55:47;57.53;;;16.33;;
79023;SDS011;70306;44.764;37.688;2024-02-23T05:56:50;69.25;;;16.23;;
79023;SDS011;70306;44.764;37.688;2024-02-23T05:57:52;102.10;;;17.02;;
79023;SDS011;70306;44.764;37.688;2024-02-23T05:58:54;58.30;;;15.70;;
79023;SDS011;70306;44.764;37.688;2024-02-23T05:59:56;66.45;;;15.75;;